sensor_id;sensor_type;location;lat;lon;timestamp;P1;durP1;ratioP1;P2;durP2;ratioP2
37903;SDS011;23738;50.422;18.758;2024-03-02T00:02:06;171.20;;;95.30;;
37903;SDS011;23738;50.422;18.758;2024-03-02T00:04:36;159.10;;;88.80;;
37903;SDS011;23738;50.422;18.758;2024-03-02T00:07:05;135.20;;;69.50;;
37903;SDS011;23738;50.422;18.758;2024-03-02T00:09:36;129.60;;;67.50;;
37903;SDS011;23738;50.422;18.758;2024-03-02T00:12:07;115.50;;;61.00;;
37903;SDS011;23738;50.422;18.758;2024-03-02T00:14:39;122.60;;;67.70;;
37903;SDS011;23738;50.422;18.758;2024-03-02T00:17:11;121.20;;;69.50;;
37903;SDS011;23738;50.422;18.758;2024-03-02T00:19:49;119.30;;;70.10;;
37903;SDS011;23738;50.422;18.758;2024-03-02T00:22:19;133.60;;;73.80;;
37903;SDS011;23738;50.422;18.758;2024-03-02T00:24:48;105.60;;;55.70;;
37903;SDS011;23738;50.422;18.758;2024-03-02T00:27:18;107.80;;;54.10;;
37903;SDS011;23738;50.422;18.758;2024-03-02T00:29:51;102.10;;;51.80;;
37903;SDS011;23738;50.422;18.758;2024-03-02T00:32:23;100.70;;;54.70;;
37903;SDS011;23738;50.422;18.758;2024-03-02T00:34:54;107.20;;;59.80;;
37903;SDS011;23738;50.422;18.758;2024-03-02T00:37:24;111.10;;;58.70;;
37903;SDS011;23738;50.422;18.758;2024-03-02T00:39:55;107.00;;;60.20;;
37903;SDS011;23738;50.422;18.758;2024-03-02T00:42:25;106.50;;;58.20;;
37903;SDS011;23738;50.422;18.758;2024-03-02T00:44:54;97.80;;;52.10;;
37903;SDS011;23738;50.422;18.758;2024-03-02T00:47:24;91.60;;;50.00;;
37903;SDS011;23738;50.422;18.758;2024-03-02T00:49:53;85.90;;;48.10;;
37903;SDS011;23738;50.422;18.758;2024-03-02T00:52:23;95.60;;;50.70;;
37903;SDS011;23738;50.422;18.758;2024-03-02T00:54:53;98.50;;;51.20;;
37903;SDS011;23738;50.422;18.758;2024-03-02T00:57:27;91.50;;;48.70;;
37903;SDS011;23738;50.422;18.758;2024-03-02T01:00:01;98.90;;;48.80;;
37903;SDS011;23738;50.422;18.758;2024-03-02T01:02:35;95.70;;;50.60;;
37903;SDS011;23738;50.422;18.758;2024-03-02T01:05:05;92.10;;;50.50;;
37903;SDS011;23738;50.422;18.758;2024-03-02T01:07:36;94.30;;;52.70;;
37903;SDS011;23738;50.422;18.758;2024-03-02T01:10:08;100.60;;;54.90;;
37903;SDS011;23738;50.422;18.758;2024-03-02T01:12:38;90.70;;;49.60;;
37903;SDS011;23738;50.422;18.758;2024-03-02T01:15:09;85.30;;;45.90;;
37903;SDS011;23738;50.422;18.758;2024-03-02T01:17:38;88.90;;;45.60;;
37903;SDS011;23738;50.422;18.758;2024-03-02T01:20:09;79.20;;;43.90;;
37903;SDS011;23738;50.422;18.758;2024-03-02T01:22:39;80.00;;;42.90;;
37903;SDS011;23738;50.422;18.758;2024-03-02T01:25:09;90.50;;;45.90;;
37903;SDS011;23738;50.422;18.758;2024-03-02T01:27:40;84.80;;;46.70;;
37903;SDS011;23738;50.422;18.758;2024-03-02T01:30:11;88.10;;;48.10;;
37903;SDS011;23738;50.422;18.758;2024-03-02T01:32:40;91.10;;;45.30;;
37903;SDS011;23738;50.422;18.758;2024-03-02T01:35:10;80.60;;;42.60;;
37903;SDS011;23738;50.422;18.758;2024-03-02T01:37:41;81.50;;;42.30;;
37903;SDS011;23738;50.422;18.758;2024-03-02T01:40:12;81.30;;;43.50;;
37903;SDS011;23738;50.422;18.758;2024-03-02T01:42:42;85.90;;;46.10;;
37903;SDS011;23738;50.422;18.758;2024-03-02T01:45:13;82.40;;;44.00;;
37903;SDS011;23738;50.422;18.758;2024-03-02T01:47:42;85.40;;;44.30;;
37903;SDS011;23738;50.422;18.758;2024-03-02T01:50:12;81.80;;;42.60;;
37903;SDS011;23738;50.422;18.758;2024-03-02T01:52:41;72.30;;;38.20;;
37903;SDS011;23738;50.422;18.758;2024-03-02T01:55:13;73.10;;;37.60;;
37903;SDS011;23738;50.422;18.758;2024-03-02T01:57:42;67.40;;;37.30;;
37903;SDS011;23738;50.422;18.758;2024-03-02T02:00:15;81.40;;;36.50;;
37903;SDS011;23738;50.422;18.758;2024-03-02T02:02:45;74.40;;;39.20;;
37903;SDS011;23738;50.422;18.758;2024-03-02T02:05:16;73.20;;;39.30;;
37903;SDS011;23738;50.422;18.758;2024-03-02T02:07:46;82.90;;;38.00;;
37903;SDS011;23738;50.422;18.758;2024-03-02T02:10:16;69.90;;;35.50;;
37903;SDS011;23738;50.422;18.758;2024-03-02T02:12:46;68.90;;;36.30;;
37903;SDS011;23738;50.422;18.758;2024-03-02T02:15:28;67.60;;;35.50;;
37903;SDS011;23738;50.422;18.758;2024-03-02T02:17:58;75.80;;;37.90;;
37903;SDS011;23738;50.422;18.758;2024-03-02T02:20:28;70.20;;;36.70;;
37903;SDS011;23738;50.422;18.758;2024-03-02T02:22:58;77.60;;;39.20;;
37903;SDS011;23738;50.422;18.758;2024-03-02T02:25:28;77.00;;;37.70;;
37903;SDS011;23738;50.422;18.758;2024-03-02T02:27:58;74.20;;;36.70;;
37903;SDS011;23738;50.422;18.758;2024-03-02T02:30:29;64.70;;;34.20;;
37903;SDS011;23738;50.422;18.758;2024-03-02T02:32:59;62.80;;;34.70;;
37903;SDS011;23738;50.422;18.758;2024-03-02T02:35:29;67.30;;;36.20;;
37903;SDS011;23738;50.422;18.758;2024-03-02T02:37:59;72.60;;;36.70;;
37903;SDS011;23738;50.422;18.758;2024-03-02T02:40:29;72.70;;;39.80;;
37903;SDS011;23738;50.422;18.758;2024-03-02T02:42:59;60.90;;;34.00;;
37903;SDS011;23738;50.422;18.758;2024-03-02T02:45:29;66.00;;;34.70;;
37903;SDS011;23738;50.422;18.758;2024-03-02T02:47:58;72.90;;;35.90;;
37903;SDS011;23738;50.422;18.758;2024-03-02T02:50:29;67.70;;;35.20;;
37903;SDS011;23738;50.422;18.758;2024-03-02T02:52:58;66.20;;;34.70;;
37903;SDS011;23738;50.422;18.758;2024-03-02T02:55:28;61.60;;;36.30;;
37903;SDS011;23738;50.422;18.758;2024-03-02T02:57:57;62.90;;;34.10;;
37903;SDS011;23738;50.422;18.758;2024-03-02T03:00:27;62.40;;;34.10;;
37903;SDS011;23738;50.422;18.758;2024-03-02T03:02:56;60.60;;;32.80;;
37903;SDS011;23738;50.422;18.758;2024-03-02T03:05:26;59.20;;;32.60;;
37903;SDS011;23738;50.422;18.758;2024-03-02T03:07:56;63.50;;;34.30;;
37903;SDS011;23738;50.422;18.758;2024-03-02T03:10:26;58.70;;;35.60;;
37903;SDS011;23738;50.422;18.758;2024-03-02T03:12:56;63.80;;;34.80;;
37903;SDS011;23738;50.422;18.758;2024-03-02T03:15:25;68.10;;;36.30;;
37903;SDS011;23738;50.422;18.758;2024-03-02T03:17:55;62.50;;;34.50;;
37903;SDS011;23738;50.422;18.758;2024-03-02T03:20:25;59.80;;;32.80;;
37903;SDS011;23738;50.422;18.758;2024-03-02T03:22:55;65.40;;;32.00;;
37903;SDS011;23738;50.422;18.758;2024-03-02T03:25:24;64.80;;;32.00;;
37903;SDS011;23738;50.422;18.758;2024-03-02T03:27:54;63.10;;;33.20;;
37903;SDS011;23738;50.422;18.758;2024-03-02T03:30:24;61.00;;;34.50;;
37903;SDS011;23738;50.422;18.758;2024-03-02T03:32:53;68.50;;;33.60;;
37903;SDS011;23738;50.422;18.758;2024-03-02T03:35:23;64.50;;;31.70;;
37903;SDS011;23738;50.422;18.758;2024-03-02T03:37:52;56.70;;;30.60;;
37903;SDS011;23738;50.422;18.758;2024-03-02T03:40:22;61.70;;;30.40;;
37903;SDS011;23738;50.422;18.758;2024-03-02T03:42:52;46.40;;;29.30;;
37903;SDS011;23738;50.422;18.758;2024-03-02T03:45:23;60.40;;;34.00;;
37903;SDS011;23738;50.422;18.758;2024-03-02T03:47:53;72.30;;;36.00;;
37903;SDS011;23738;50.422;18.758;2024-03-02T03:50:23;63.20;;;35.60;;
37903;SDS011;23738;50.422;18.758;2024-03-02T03:52:52;62.00;;;34.30;;
37903;SDS011;23738;50.422;18.758;2024-03-02T03:55:22;67.30;;;32.80;;
37903;SDS011;23738;50.422;18.758;2024-03-02T03:57:52;54.50;;;32.30;;
37903;SDS011;23738;50.422;18.758;2024-03-02T04:00:21;56.70;;;33.00;;
37903;SDS011;23738;50.422;18.758;2024-03-02T04:02:51;59.80;;;34.60;;
37903;SDS011;23738;50.422;18.758;2024-03-02T04:05:20;59.70;;;36.90;;
37903;SDS011;23738;50.422;18.758;2024-03-02T04:07:50;66.90;;;37.10;;
37903;SDS011;23738;50.422;18.758;2024-03-02T04:10:20;72.80;;;36.70;;
37903;SDS011;23738;50.422;18.758;2024-03-02T04:12:51;60.90;;;33.50;;
37903;SDS011;23738;50.422;18.758;2024-03-02T04:15:21;58.70;;;32.50;;
37903;SDS011;23738;50.422;18.758;2024-03-02T04:17:51;51.60;;;29.90;;
37903;SDS011;23738;50.422;18.758;2024-03-02T04:20:21;55.70;;;31.30;;
37903;SDS011;23738;50.422;18.758;2024-03-02T04:22:52;63.70;;;34.00;;
37903;SDS011;23738;50.422;18.758;2024-03-02T04:25:21;61.00;;;32.90;;
37903;SDS011;23738;50.422;18.758;2024-03-02T04:27:51;55.70;;;31.30;;
37903;SDS011;23738;50.422;18.758;2024-03-02T04:30:20;53.50;;;29.50;;
37903;SDS011;23738;50.422;18.758;2024-03-02T04:32:50;54.50;;;28.70;;
37903;SDS011;23738;50.422;18.758;2024-03-02T04:35:19;55.00;;;29.60;;
37903;SDS011;23738;50.422;18.758;2024-03-02T04:37:49;53.00;;;29.10;;
37903;SDS011;23738;50.422;18.758;2024-03-02T04:40:19;54.20;;;31.20;;
37903;SDS011;23738;50.422;18.758;2024-03-02T04:42:48;51.60;;;30.00;;
37903;SDS011;23738;50.422;18.758;2024-03-02T04:45:18;66.80;;;30.10;;
37903;SDS011;23738;50.422;18.758;2024-03-02T04:47:48;51.90;;;28.60;;
37903;SDS011;23738;50.422;18.758;2024-03-02T04:50:17;52.20;;;28.50;;
37903;SDS011;23738;50.422;18.758;2024-03-02T04:52:47;52.80;;;29.00;;
37903;SDS011;23738;50.422;18.758;2024-03-02T04:55:17;51.90;;;31.00;;
37903;SDS011;23738;50.422;18.758;2024-03-02T04:58:11;53.00;;;30.00;;
37903;SDS011;23738;50.422;18.758;2024-03-02T05:00:41;54.00;;;30.00;;
37903;SDS011;23738;50.422;18.758;2024-03-02T05:03:14;59.70;;;31.10;;
37903;SDS011;23738;50.422;18.758;2024-03-02T05:05:44;53.20;;;30.00;;
37903;SDS011;23738;50.422;18.758;2024-03-02T05:08:14;60.30;;;29.80;;
37903;SDS011;23738;50.422;18.758;2024-03-02T05:10:44;50.90;;;29.80;;
37903;SDS011;23738;50.422;18.758;2024-03-02T05:13:14;62.50;;;32.30;;
37903;SDS011;23738;50.422;18.758;2024-03-02T05:15:44;54.80;;;30.50;;
37903;SDS011;23738;50.422;18.758;2024-03-02T05:18:14;57.80;;;30.80;;
37903;SDS011;23738;50.422;18.758;2024-03-02T05:20:43;54.30;;;29.10;;
37903;SDS011;23738;50.422;18.758;2024-03-02T05:23:14;54.20;;;29.80;;
37903;SDS011;23738;50.422;18.758;2024-03-02T05:25:44;57.20;;;29.80;;
37903;SDS011;23738;50.422;18.758;2024-03-02T05:28:13;60.00;;;30.30;;
37903;SDS011;23738;50.422;18.758;2024-03-02T05:30:43;61.00;;;32.70;;
37903;SDS011;23738;50.422;18.758;2024-03-02T05:33:13;65.40;;;37.40;;
37903;SDS011;23738;50.422;18.758;2024-03-02T05:35:45;58.00;;;31.40;;
37903;SDS011;23738;50.422;18.758;2024-03-02T05:38:14;64.80;;;30.00;;
37903;SDS011;23738;50.422;18.758;2024-03-02T05:40:43;58.10;;;31.50;;
37903;SDS011;23738;50.422;18.758;2024-03-02T05:43:13;48.10;;;28.60;;
37903;SDS011;23738;50.422;18.758;2024-03-02T05:45:43;57.00;;;29.60;;
37903;SDS011;23738;50.422;18.758;2024-03-02T05:48:13;55.80;;;29.80;;
37903;SDS011;23738;50.422;18.758;2024-03-02T05:50:43;51.30;;;28.50;;
37903;SDS011;23738;50.422;18.758;2024-03-02T05:53:12;55.90;;;29.70;;
37903;SDS011;23738;50.422;18.758;2024-03-02T05:55:42;51.50;;;28.30;;
37903;SDS011;23738;50.422;18.758;2024-03-02T05:58:12;50.60;;;26.90;;
37903;SDS011;23738;50.422;18.758;2024-03-02T06:00:54;47.00;;;28.30;;
37903;SDS011;23738;50.422;18.758;2024-03-02T06:03:24;58.60;;;29.10;;
37903;SDS011;23738;50.422;18.758;2024-03-02T06:05:54;58.60;;;30.20;;
37903;SDS011;23738;50.422;18.758;2024-03-02T06:08:24;49.00;;;29.50;;
37903;SDS011;23738;50.422;18.758;2024-03-02T06:10:54;61.50;;;31.70;;
37903;SDS011;23738;50.422;18.758;2024-03-02T06:13:23;59.60;;;30.40;;
37903;SDS011;23738;50.422;18.758;2024-03-02T06:15:53;54.60;;;30.40;;
37903;SDS011;23738;50.422;18.758;2024-03-02T06:18:23;51.00;;;28.50;;
37903;SDS011;23738;50.422;18.758;2024-03-02T06:20:52;59.40;;;29.70;;
37903;SDS011;23738;50.422;18.758;2024-03-02T06:23:22;54.30;;;31.60;;
37903;SDS011;23738;50.422;18.758;2024-03-02T06:25:52;66.90;;;34.20;;
37903;SDS011;23738;50.422;18.758;2024-03-02T06:28:21;53.20;;;31.30;;
37903;SDS011;23738;50.422;18.758;2024-03-02T06:30:50;70.20;;;33.50;;
37903;SDS011;23738;50.422;18.758;2024-03-02T06:33:20;55.70;;;31.10;;
37903;SDS011;23738;50.422;18.758;2024-03-02T06:35:50;60.20;;;32.60;;
37903;SDS011;23738;50.422;18.758;2024-03-02T06:38:20;62.10;;;33.70;;
37903;SDS011;23738;50.422;18.758;2024-03-02T06:40:49;67.20;;;35.00;;
37903;SDS011;23738;50.422;18.758;2024-03-02T06:43:19;66.20;;;36.10;;
37903;SDS011;23738;50.422;18.758;2024-03-02T06:45:50;63.60;;;33.50;;
37903;SDS011;23738;50.422;18.758;2024-03-02T06:48:19;69.20;;;33.80;;
37903;SDS011;23738;50.422;18.758;2024-03-02T06:50:50;65.00;;;34.70;;
37903;SDS011;23738;50.422;18.758;2024-03-02T06:53:19;66.00;;;34.60;;
37903;SDS011;23738;50.422;18.758;2024-03-02T06:55:49;62.40;;;34.90;;
37903;SDS011;23738;50.422;18.758;2024-03-02T06:58:18;63.20;;;35.70;;
37903;SDS011;23738;50.422;18.758;2024-03-02T07:00:48;70.70;;;37.10;;
37903;SDS011;23738;50.422;18.758;2024-03-02T07:03:19;76.60;;;36.30;;
37903;SDS011;23738;50.422;18.758;2024-03-02T07:05:49;57.70;;;33.60;;
37903;SDS011;23738;50.422;18.758;2024-03-02T07:08:18;60.20;;;31.80;;
37903;SDS011;23738;50.422;18.758;2024-03-02T07:10:48;64.70;;;35.80;;
37903;SDS011;23738;50.422;18.758;2024-03-02T07:13:17;63.50;;;35.10;;
37903;SDS011;23738;50.422;18.758;2024-03-02T07:15:47;68.00;;;35.10;;
37903;SDS011;23738;50.422;18.758;2024-03-02T07:18:42;63.40;;;34.90;;
37903;SDS011;23738;50.422;18.758;2024-03-02T07:21:17;64.30;;;32.80;;
37903;SDS011;23738;50.422;18.758;2024-03-02T07:23:48;58.40;;;30.40;;
37903;SDS011;23738;50.422;18.758;2024-03-02T07:26:18;60.60;;;29.50;;
37903;SDS011;23738;50.422;18.758;2024-03-02T07:28:49;58.80;;;30.00;;
37903;SDS011;23738;50.422;18.758;2024-03-02T07:31:19;64.50;;;32.50;;
37903;SDS011;23738;50.422;18.758;2024-03-02T07:33:49;59.00;;;33.80;;
37903;SDS011;23738;50.422;18.758;2024-03-02T07:36:19;66.70;;;36.50;;
37903;SDS011;23738;50.422;18.758;2024-03-02T07:38:48;67.20;;;34.10;;
37903;SDS011;23738;50.422;18.758;2024-03-02T07:41:18;65.80;;;34.30;;
37903;SDS011;23738;50.422;18.758;2024-03-02T07:43:48;65.80;;;32.70;;
37903;SDS011;23738;50.422;18.758;2024-03-02T07:46:17;69.80;;;35.60;;
37903;SDS011;23738;50.422;18.758;2024-03-02T07:48:48;70.00;;;35.80;;
37903;SDS011;23738;50.422;18.758;2024-03-02T07:51:18;74.90;;;37.70;;
37903;SDS011;23738;50.422;18.758;2024-03-02T07:53:48;65.10;;;36.90;;
37903;SDS011;23738;50.422;18.758;2024-03-02T07:56:17;67.00;;;33.40;;
37903;SDS011;23738;50.422;18.758;2024-03-02T07:58:49;63.20;;;32.50;;
37903;SDS011;23738;50.422;18.758;2024-03-02T08:01:18;61.80;;;32.80;;
37903;SDS011;23738;50.422;18.758;2024-03-02T08:03:49;62.20;;;34.90;;
37903;SDS011;23738;50.422;18.758;2024-03-02T08:06:19;67.40;;;37.20;;
37903;SDS011;23738;50.422;18.758;2024-03-02T08:08:50;67.50;;;35.80;;
37903;SDS011;23738;50.422;18.758;2024-03-02T08:11:20;68.40;;;39.20;;
37903;SDS011;23738;50.422;18.758;2024-03-02T08:13:50;67.50;;;34.10;;
37903;SDS011;23738;50.422;18.758;2024-03-02T08:16:21;73.00;;;35.80;;
37903;SDS011;23738;50.422;18.758;2024-03-02T08:18:52;66.50;;;34.50;;
37903;SDS011;23738;50.422;18.758;2024-03-02T08:21:24;80.10;;;40.50;;
37903;SDS011;23738;50.422;18.758;2024-03-02T08:23:57;84.20;;;43.90;;
37903;SDS011;23738;50.422;18.758;2024-03-02T08:26:27;71.60;;;39.60;;
37903;SDS011;23738;50.422;18.758;2024-03-02T08:28:59;74.90;;;39.00;;
37903;SDS011;23738;50.422;18.758;2024-03-02T08:31:30;67.90;;;33.60;;
37903;SDS011;23738;50.422;18.758;2024-03-02T08:33:59;66.70;;;33.20;;
37903;SDS011;23738;50.422;18.758;2024-03-02T08:36:29;126.40;;;68.10;;
37903;SDS011;23738;50.422;18.758;2024-03-02T08:38:59;129.10;;;71.20;;
37903;SDS011;23738;50.422;18.758;2024-03-02T08:41:28;125.40;;;66.30;;
37903;SDS011;23738;50.422;18.758;2024-03-02T08:43:58;124.20;;;62.40;;
37903;SDS011;23738;50.422;18.758;2024-03-02T08:46:28;174.10;;;86.70;;
37903;SDS011;23738;50.422;18.758;2024-03-02T08:48:57;148.00;;;69.20;;
37903;SDS011;23738;50.422;18.758;2024-03-02T08:51:27;114.50;;;53.50;;
37903;SDS011;23738;50.422;18.758;2024-03-02T08:53:57;104.20;;;49.70;;
37903;SDS011;23738;50.422;18.758;2024-03-02T08:56:27;94.20;;;44.80;;
37903;SDS011;23738;50.422;18.758;2024-03-02T08:58:56;100.00;;;42.50;;
37903;SDS011;23738;50.422;18.758;2024-03-02T09:01:26;78.80;;;39.00;;
37903;SDS011;23738;50.422;18.758;2024-03-02T09:03:56;71.90;;;40.80;;
37903;SDS011;23738;50.422;18.758;2024-03-02T09:06:25;75.70;;;38.10;;
37903;SDS011;23738;50.422;18.758;2024-03-02T09:08:55;68.90;;;36.20;;
37903;SDS011;23738;50.422;18.758;2024-03-02T09:11:25;77.40;;;39.30;;
37903;SDS011;23738;50.422;18.758;2024-03-02T09:13:55;79.80;;;40.40;;
37903;SDS011;23738;50.422;18.758;2024-03-02T09:16:24;87.10;;;43.50;;
37903;SDS011;23738;50.422;18.758;2024-03-02T09:18:57;92.80;;;45.20;;
37903;SDS011;23738;50.422;18.758;2024-03-02T09:21:27;79.60;;;40.80;;
37903;SDS011;23738;50.422;18.758;2024-03-02T09:23:57;73.50;;;36.30;;
37903;SDS011;23738;50.422;18.758;2024-03-02T09:26:29;71.90;;;34.40;;
37903;SDS011;23738;50.422;18.758;2024-03-02T09:28:59;73.40;;;37.30;;
37903;SDS011;23738;50.422;18.758;2024-03-02T09:31:28;75.10;;;39.20;;
37903;SDS011;23738;50.422;18.758;2024-03-02T09:33:58;73.40;;;41.00;;
37903;SDS011;23738;50.422;18.758;2024-03-02T09:36:28;72.90;;;38.60;;
37903;SDS011;23738;50.422;18.758;2024-03-02T09:38:58;70.50;;;38.60;;
37903;SDS011;23738;50.422;18.758;2024-03-02T09:41:28;70.70;;;36.50;;
37903;SDS011;23738;50.422;18.758;2024-03-02T09:43:58;74.10;;;36.00;;
37903;SDS011;23738;50.422;18.758;2024-03-02T09:46:27;71.50;;;38.70;;
37903;SDS011;23738;50.422;18.758;2024-03-02T09:48:57;79.40;;;40.40;;
37903;SDS011;23738;50.422;18.758;2024-03-02T09:51:27;74.60;;;40.90;;
37903;SDS011;23738;50.422;18.758;2024-03-02T09:53:56;75.70;;;41.20;;
37903;SDS011;23738;50.422;18.758;2024-03-02T09:56:28;71.60;;;41.00;;
37903;SDS011;23738;50.422;18.758;2024-03-02T09:58:58;66.80;;;35.50;;
37903;SDS011;23738;50.422;18.758;2024-03-02T10:01:28;66.40;;;36.90;;
37903;SDS011;23738;50.422;18.758;2024-03-02T10:03:59;66.80;;;37.30;;
37903;SDS011;23738;50.422;18.758;2024-03-02T10:06:29;69.20;;;39.90;;
37903;SDS011;23738;50.422;18.758;2024-03-02T10:08:58;78.10;;;42.20;;
37903;SDS011;23738;50.422;18.758;2024-03-02T10:11:29;75.00;;;43.20;;
37903;SDS011;23738;50.422;18.758;2024-03-02T10:14:10;74.10;;;42.80;;
37903;SDS011;23738;50.422;18.758;2024-03-02T10:16:41;70.20;;;36.30;;
37903;SDS011;23738;50.422;18.758;2024-03-02T10:19:16;66.80;;;36.10;;
37903;SDS011;23738;50.422;18.758;2024-03-02T10:21:47;72.60;;;36.70;;
37903;SDS011;23738;50.422;18.758;2024-03-02T10:24:18;62.50;;;36.90;;
37903;SDS011;23738;50.422;18.758;2024-03-02T10:26:49;65.10;;;38.40;;
37903;SDS011;23738;50.422;18.758;2024-03-02T10:29:19;63.80;;;38.10;;
37903;SDS011;23738;50.422;18.758;2024-03-02T10:31:49;64.20;;;37.00;;
37903;SDS011;23738;50.422;18.758;2024-03-02T10:34:19;67.10;;;33.60;;
37903;SDS011;23738;50.422;18.758;2024-03-02T10:36:50;60.20;;;33.20;;
37903;SDS011;23738;50.422;18.758;2024-03-02T10:39:19;73.10;;;37.70;;
37903;SDS011;23738;50.422;18.758;2024-03-02T10:41:50;64.70;;;38.60;;
37903;SDS011;23738;50.422;18.758;2024-03-02T10:44:23;64.90;;;38.30;;
37903;SDS011;23738;50.422;18.758;2024-03-02T10:46:53;73.40;;;41.20;;
37903;SDS011;23738;50.422;18.758;2024-03-02T10:49:24;77.60;;;42.40;;
37903;SDS011;23738;50.422;18.758;2024-03-02T10:51:54;66.50;;;40.40;;
37903;SDS011;23738;50.422;18.758;2024-03-02T10:54:23;55.90;;;34.10;;
37903;SDS011;23738;50.422;18.758;2024-03-02T10:56:56;58.00;;;36.10;;
37903;SDS011;23738;50.422;18.758;2024-03-02T10:59:28;77.00;;;41.70;;
37903;SDS011;23738;50.422;18.758;2024-03-02T11:02:01;64.30;;;38.00;;
37903;SDS011;23738;50.422;18.758;2024-03-02T11:04:33;63.20;;;37.70;;
37903;SDS011;23738;50.422;18.758;2024-03-02T11:07:06;70.30;;;39.80;;
37903;SDS011;23738;50.422;18.758;2024-03-02T11:09:39;69.10;;;41.00;;
37903;SDS011;23738;50.422;18.758;2024-03-02T11:12:25;68.50;;;39.80;;
37903;SDS011;23738;50.422;18.758;2024-03-02T11:15:10;60.80;;;34.20;;
37903;SDS011;23738;50.422;18.758;2024-03-02T11:17:44;54.60;;;33.70;;
37903;SDS011;23738;50.422;18.758;2024-03-02T11:20:15;61.60;;;37.20;;
37903;SDS011;23738;50.422;18.758;2024-03-02T11:22:46;72.00;;;38.80;;
37903;SDS011;23738;50.422;18.758;2024-03-02T11:25:25;65.20;;;38.80;;
37903;SDS011;23738;50.422;18.758;2024-03-02T11:28:03;64.80;;;37.00;;
37903;SDS011;23738;50.422;18.758;2024-03-02T11:30:51;74.10;;;43.80;;
37903;SDS011;23738;50.422;18.758;2024-03-02T11:33:25;75.10;;;43.80;;
37903;SDS011;23738;50.422;18.758;2024-03-02T11:35:57;69.80;;;40.20;;
37903;SDS011;23738;50.422;18.758;2024-03-02T11:38:32;70.40;;;37.80;;
37903;SDS011;23738;50.422;18.758;2024-03-02T11:41:03;66.40;;;39.70;;
37903;SDS011;23738;50.422;18.758;2024-03-02T11:43:38;79.90;;;49.30;;
37903;SDS011;23738;50.422;18.758;2024-03-02T11:46:07;90.80;;;48.30;;
37903;SDS011;23738;50.422;18.758;2024-03-02T11:48:39;78.50;;;45.30;;
37903;SDS011;23738;50.422;18.758;2024-03-02T11:51:09;85.00;;;49.30;;
37903;SDS011;23738;50.422;18.758;2024-03-02T11:53:41;78.10;;;42.30;;
37903;SDS011;23738;50.422;18.758;2024-03-02T11:56:12;80.80;;;42.80;;
37903;SDS011;23738;50.422;18.758;2024-03-02T11:58:43;82.00;;;45.00;;
37903;SDS011;23738;50.422;18.758;2024-03-02T12:01:14;85.40;;;47.10;;
37903;SDS011;23738;50.422;18.758;2024-03-02T12:03:44;89.90;;;49.90;;
37903;SDS011;23738;50.422;18.758;2024-03-02T12:06:16;87.40;;;48.80;;
37903;SDS011;23738;50.422;18.758;2024-03-02T12:08:47;83.60;;;48.90;;
37903;SDS011;23738;50.422;18.758;2024-03-02T12:11:22;74.90;;;43.80;;
37903;SDS011;23738;50.422;18.758;2024-03-02T12:13:54;70.00;;;38.50;;
37903;SDS011;23738;50.422;18.758;2024-03-02T12:16:26;49.80;;;29.00;;
37903;SDS011;23738;50.422;18.758;2024-03-02T12:18:56;50.90;;;30.00;;
37903;SDS011;23738;50.422;18.758;2024-03-02T12:21:25;44.20;;;27.60;;
37903;SDS011;23738;50.422;18.758;2024-03-02T12:23:55;44.10;;;26.60;;
37903;SDS011;23738;50.422;18.758;2024-03-02T12:26:25;42.10;;;24.40;;
37903;SDS011;23738;50.422;18.758;2024-03-02T12:28:55;42.40;;;23.70;;
37903;SDS011;23738;50.422;18.758;2024-03-02T12:31:25;36.70;;;22.90;;
37903;SDS011;23738;50.422;18.758;2024-03-02T12:33:54;37.40;;;23.50;;
37903;SDS011;23738;50.422;18.758;2024-03-02T12:36:25;31.50;;;20.40;;
37903;SDS011;23738;50.422;18.758;2024-03-02T12:38:54;37.80;;;21.90;;
37903;SDS011;23738;50.422;18.758;2024-03-02T12:41:24;38.50;;;24.20;;
37903;SDS011;23738;50.422;18.758;2024-03-02T12:43:53;47.40;;;25.00;;
37903;SDS011;23738;50.422;18.758;2024-03-02T12:46:23;35.30;;;21.80;;
37903;SDS011;23738;50.422;18.758;2024-03-02T12:48:54;31.80;;;20.30;;
37903;SDS011;23738;50.422;18.758;2024-03-02T12:51:23;28.50;;;19.30;;
37903;SDS011;23738;50.422;18.758;2024-03-02T12:53:54;30.70;;;18.40;;
37903;SDS011;23738;50.422;18.758;2024-03-02T12:56:24;27.10;;;16.40;;
37903;SDS011;23738;50.422;18.758;2024-03-02T12:58:54;17.10;;;13.20;;
37903;SDS011;23738;50.422;18.758;2024-03-02T13:01:26;25.10;;;14.00;;
37903;SDS011;23738;50.422;18.758;2024-03-02T13:03:56;19.90;;;14.10;;
37903;SDS011;23738;50.422;18.758;2024-03-02T13:06:26;18.20;;;13.20;;
37903;SDS011;23738;50.422;18.758;2024-03-02T13:08:56;16.70;;;13.20;;
37903;SDS011;23738;50.422;18.758;2024-03-02T13:11:25;19.30;;;14.50;;
37903;SDS011;23738;50.422;18.758;2024-03-02T13:13:55;18.10;;;14.60;;
37903;SDS011;23738;50.422;18.758;2024-03-02T13:16:25;20.70;;;14.90;;
37903;SDS011;23738;50.422;18.758;2024-03-02T13:18:55;19.40;;;14.20;;
37903;SDS011;23738;50.422;18.758;2024-03-02T13:21:24;15.00;;;12.70;;
37903;SDS011;23738;50.422;18.758;2024-03-02T13:23:54;20.90;;;15.50;;
37903;SDS011;23738;50.422;18.758;2024-03-02T13:26:23;27.50;;;16.50;;
37903;SDS011;23738;50.422;18.758;2024-03-02T13:28:54;26.50;;;18.00;;
37903;SDS011;23738;50.422;18.758;2024-03-02T13:31:24;24.20;;;19.00;;
37903;SDS011;23738;50.422;18.758;2024-03-02T13:33:53;24.50;;;18.30;;
37903;SDS011;23738;50.422;18.758;2024-03-02T13:36:23;26.60;;;19.20;;
37903;SDS011;23738;50.422;18.758;2024-03-02T13:38:52;26.00;;;17.10;;
37903;SDS011;23738;50.422;18.758;2024-03-02T13:41:22;22.20;;;16.60;;
37903;SDS011;23738;50.422;18.758;2024-03-02T13:43:51;26.60;;;17.80;;
37903;SDS011;23738;50.422;18.758;2024-03-02T13:46:21;22.50;;;17.10;;
37903;SDS011;23738;50.422;18.758;2024-03-02T13:48:50;20.70;;;17.50;;
37903;SDS011;23738;50.422;18.758;2024-03-02T13:51:21;20.50;;;17.60;;
37903;SDS011;23738;50.422;18.758;2024-03-02T13:53:52;30.20;;;18.90;;
37903;SDS011;23738;50.422;18.758;2024-03-02T13:56:21;24.00;;;16.90;;
37903;SDS011;23738;50.422;18.758;2024-03-02T13:58:51;25.80;;;18.10;;
37903;SDS011;23738;50.422;18.758;2024-03-02T14:01:20;28.00;;;19.20;;
37903;SDS011;23738;50.422;18.758;2024-03-02T14:03:50;32.30;;;21.30;;
37903;SDS011;23738;50.422;18.758;2024-03-02T14:06:21;36.10;;;20.40;;
37903;SDS011;23738;50.422;18.758;2024-03-02T14:08:53;25.40;;;18.50;;
37903;SDS011;23738;50.422;18.758;2024-03-02T14:11:23;29.60;;;20.00;;
37903;SDS011;23738;50.422;18.758;2024-03-02T14:13:53;25.80;;;16.50;;
37903;SDS011;23738;50.422;18.758;2024-03-02T14:16:23;21.80;;;15.00;;
37903;SDS011;23738;50.422;18.758;2024-03-02T14:18:53;31.80;;;16.30;;
37903;SDS011;23738;50.422;18.758;2024-03-02T14:21:22;23.30;;;17.80;;
37903;SDS011;23738;50.422;18.758;2024-03-02T14:23:52;26.30;;;18.60;;
37903;SDS011;23738;50.422;18.758;2024-03-02T14:26:22;27.90;;;19.50;;
37903;SDS011;23738;50.422;18.758;2024-03-02T14:28:52;27.40;;;19.30;;